Terminal Aerodrome Forecast
Issued by NWS

Home | Current Version | Previous Version | Text Only | Print | Product List | Glossary On
Versions: 1 2 3 4 5 6 7 8 9 10 11 12 13 14
593
FTUS41 KBTV 241720
TAFMSS
TAF
KMSS 241720Z 2418/2518 22011G18KT P6SM SKC
     FM250000 20005KT P6SM SKC
     FM251000 21005KT P6SM SCT080 BKN150
     FM251500 22011G19KT P6SM VCSH SCT045 BKN080=

USA.gov is the U.S. government's official web portal to all federal, state and local government web resources and services.